Aérodrome :
LOGIN :

S'inscrire | Disclaimer

   EN    FR    IT 

 










Légende :    VFR   VFR Marginal   IFR   IFR Intensif   IFR Très Intensif
Visi : 
Plafond : 
>= 8 km
>= 3000ft
5 à 8 km
1000 à 3000 ft
1500m à 5 km
500 à 1000 ft
800 à 1500m
200 à 500 ft
< 800m
< 200 ft
Symboles :   Orages  Brouillard  Fortes neiges  Fortes précipitations  Vent > 20 kt
SIGMETs :   Divers  Orages  Givrage  Turbulence  Onde Orograph.  Cendres Volcan.







- Altitude de l'aérodrome : 616 ft
- Code IATA : PUF
- Voir les cartes d'approche


LFBP - Pau

DERNIER METAR :
  • 231600Z AUTO 27006KT 8000 OVC016 11/08 Q1015 BECMG BKN014 BKN015

METARs EXPIRÉS :
  • 231530Z AUTO 27006KT 9000 OVC017 12/08 Q1015 BECMG BKN014 BKN015
  • 231500Z AUTO 27006KT 9000 BKN014 OVC019 12/09 Q1015 NOSIG
  • 231430Z AUTO 27006KT 9999 OVC015 12/09 Q1015 BECMG BKN014 BKN015
  • 231400Z AUTO 26006KT 230V290 8000 OVC016 12/08 Q1015 NOSIG
  • 231330Z AUTO 26005KT 220V280 7000 OVC014 11/08 Q1016 BECMG BKN015
  • 231300Z AUTO 28006KT 7000 OVC010 11/09 Q1016 TEMPO 3000 BR BECMG BKN015

TAF AMD TAF LFBP
Valide du 23 à 14h jusqu'au 24 à 12h UTC


231409Z 2314/2412 31008KT 8000 BKN014 BKN015
PROB40
TEMPO 2402/2409 3000 -RA
Pas de NOTAMs connus pour ce terrain.



MET'MAP, la Météo Aéronautique d'un coup d'oeil ! - Copyright ORBIFLY Décembre 2007 - Disclaimer

ORBIFLY MET'MAP TEAM :

Programmation & Développement : Alexandra Zaïnal
Conception & Développement : Baudouin d'Aumeries
Co-Programmation & Développement : Marc-Olivier Méhu
Soutien technique & logistique : Manuel Goepfert

Contact : metmap@orbifly.com




SOURCES & CREDITS :

   NOAA